createdAt,value
2023-03-27T00:04:00.957Z,35.06
2023-03-27T00:09:12.476Z,34.98
2023-03-27T00:19:36.652Z,35.59
2023-03-27T00:24:43.897Z,36.02
2023-03-27T00:29:48.944Z,36.09
2023-03-27T00:34:55.082Z,36.47
2023-03-27T00:40:00.870Z,36.86
2023-03-27T00:45:06.379Z,36.73
2023-03-27T00:50:21.256Z,36.87
2023-03-27T00:55:41.329Z,37.10
2023-03-27T01:00:44.945Z,36.94
2023-03-27T01:06:01.289Z,37.15
2023-03-27T01:11:40.679Z,37.74
2023-03-27T01:21:12.240Z,37.77
2023-03-27T01:26:55.094Z,38.23
2023-03-27T01:32:32.954Z,38.41
2023-03-27T01:38:15.095Z,38.65
2023-03-27T01:43:28.620Z,38.91
2023-03-27T01:48:52.574Z,39.32
2023-03-27T01:54:17.716Z,39.26
2023-03-27T01:59:31.112Z,39.57
2023-03-27T02:04:54.710Z,39.64
2023-03-27T02:10:06.575Z,39.65
2023-03-27T02:15:34.167Z,40.16
2023-03-27T02:20:44.532Z,40.03
2023-03-27T02:25:54.471Z,40.28
2023-03-27T02:31:34.789Z,40.17
2023-03-27T02:37:32.194Z,40.43
2023-03-27T02:43:24.298Z,40.75
2023-03-27T02:48:34.288Z,40.68
2023-03-27T02:53:48.048Z,40.72
2023-03-27T02:59:08.747Z,41.11
2023-03-27T03:04:20.520Z,41.15
2023-03-27T03:09:48.898Z,41.55
2023-03-27T03:15:01.045Z,41.64
2023-03-27T03:20:10.770Z,41.78
2023-03-27T03:25:18.209Z,41.94
2023-03-27T03:30:24.141Z,41.89
2023-03-27T03:35:42.550Z,41.82
2023-03-27T03:46:46.300Z,42.37
2023-03-27T03:52:04.268Z,42.44
2023-03-27T03:57:09.964Z,42.54
2023-03-27T04:02:12.405Z,42.72
2023-03-27T04:12:59.496Z,42.76
2023-03-27T04:18:06.197Z,42.63
2023-03-27T04:23:10.222Z,42.56
2023-03-27T04:28:16.974Z,42.44
2023-03-27T04:33:23.595Z,42.73
2023-03-27T04:38:39.280Z,42.60
2023-03-27T04:43:44.518Z,42.90
2023-03-27T04:48:47.991Z,42.96
2023-03-27T04:54:10.652Z,42.95
2023-03-27T04:59:22.547Z,42.77
2023-03-27T05:04:45.838Z,43.23
2023-03-27T05:09:52.485Z,43.21
2023-03-27T05:14:54.674Z,43.31
2023-03-27T05:20:12.090Z,43.30
2023-03-27T05:25:14.659Z,43.39
2023-03-27T05:30:21.080Z,43.19
2023-03-27T05:35:28.817Z,43.69
2023-03-27T05:40:34.859Z,43.76
2023-03-27T05:45:41.687Z,44.04
2023-03-27T05:50:46.408Z,43.86
2023-03-27T05:56:02.857Z,43.72
2023-03-27T06:01:14.102Z,43.74
2023-03-27T06:06:16.585Z,43.76
2023-03-27T06:11:20.517Z,43.59
2023-03-27T06:16:28.018Z,43.74
2023-03-27T06:21:53.208Z,44.28
2023-03-27T06:26:56.172Z,44.78
2023-03-27T06:32:01.657Z,44.68
2023-03-27T06:37:08.916Z,44.57
2023-03-27T06:42:15.142Z,44.40
2023-03-27T06:47:44.774Z,44.18
2023-03-27T06:53:27.423Z,43.38
2023-03-27T06:58:30.849Z,43.73
2023-03-27T07:03:36.315Z,43.48
2023-03-27T07:08:57.486Z,43.39
2023-03-27T07:14:00.506Z,43.13
2023-03-27T07:19:07.397Z,42.04
2023-03-27T07:24:13.709Z,40.99
2023-03-27T07:29:15.840Z,38.39
2023-03-27T07:34:24.321Z,39.34
2023-03-27T07:39:41.998Z,38.33
2023-03-27T07:44:44.447Z,37.83
2023-03-27T07:49:56.161Z,37.63
2023-03-27T07:54:59.108Z,37.00
2023-03-27T08:00:11.714Z,36.50
2023-03-27T08:05:27.204Z,36.06
2023-03-27T08:10:41.628Z,35.63
2023-03-27T08:15:45.543Z,35.06
2023-03-27T08:21:06.467Z,33.52
2023-03-27T08:26:10.743Z,34.83
2023-03-27T08:31:24.223Z,34.31
2023-03-27T08:36:28.422Z,34.21
2023-03-27T08:41:41.741Z,32.51
2023-03-27T08:47:23.615Z,31.92
2023-03-27T08:52:50.894Z,33.90
2023-03-27T08:58:17.190Z,32.20
2023-03-27T09:03:31.455Z,31.98
2023-03-27T09:13:52.644Z,31.59
2023-03-27T09:19:16.062Z,33.34
2023-03-27T09:24:59.788Z,32.25
2023-03-27T09:30:33.644Z,32.38
2023-03-27T09:35:44.190Z,32.85
2023-03-27T09:40:54.140Z,29.97
2023-03-27T09:46:10.516Z,32.47
2023-03-27T09:51:44.718Z,31.08
2023-03-27T09:57:05.311Z,34.08
2023-03-27T10:02:29.335Z,34.26
2023-03-27T10:07:33.662Z,33.71
2023-03-27T10:12:57.328Z,35.18
2023-03-27T10:18:34.627Z,35.46
2023-03-27T10:24:18.811Z,35.41
2023-03-27T10:29:41.195Z,37.58
2023-03-27T10:35:00.233Z,35.67
2023-03-27T10:40:09.358Z,35.78
2023-03-27T10:45:21.024Z,34.87
2023-03-27T10:50:33.748Z,34.71
2023-03-27T10:55:58.733Z,37.36
2023-03-27T11:01:34.701Z,38.31
2023-03-27T11:06:44.895Z,38.66
2023-03-27T11:12:02.087Z,38.49
2023-03-27T11:17:11.651Z,38.53
2023-03-27T11:22:48.245Z,37.79
2023-03-27T11:28:17.540Z,37.57
2023-03-27T11:33:41.431Z,38.54
2023-03-27T11:38:54.471Z,38.76
2023-03-27T11:43:59.474Z,39.57
2023-03-27T11:49:56.362Z,40.52
2023-03-27T11:55:25.084Z,40.72
2023-03-27T12:00:40.099Z,40.55
2023-03-27T12:06:10.172Z,39.45
2023-03-27T12:11:14.447Z,40.49
2023-03-27T12:16:58.184Z,40.45
2023-03-27T12:22:21.088Z,40.71
2023-03-27T12:27:53.535Z,40.73
2023-03-27T12:33:46.860Z,41.96
2023-03-27T12:38:53.074Z,43.55
2023-03-27T12:44:01.660Z,43.66
2023-03-27T12:49:15.830Z,44.90
2023-03-27T12:54:25.081Z,45.72
2023-03-27T12:59:29.467Z,46.31
2023-03-27T13:04:47.946Z,46.86
2023-03-27T13:10:03.998Z,47.20
2023-03-27T13:15:34.702Z,46.53
2023-03-27T13:20:56.516Z,48.84
2023-03-27T13:26:17.262Z,49.70
2023-03-27T13:31:44.521Z,51.75
2023-03-27T13:37:12.150Z,50.40
2023-03-27T13:42:24.786Z,49.74
2023-03-27T13:47:45.335Z,50.90
2023-03-27T13:53:12.870Z,52.31
2023-03-27T13:58:55.824Z,51.19
2023-03-27T14:04:06.569Z,51.14
2023-03-27T14:09:26.543Z,50.82
2023-03-27T14:15:01.009Z,52.52
2023-03-27T14:20:30.896Z,53.52
2023-03-27T14:25:39.716Z,50.53
2023-03-27T14:31:06.155Z,50.17
2023-03-27T14:36:30.312Z,50.37
2023-03-27T14:41:35.022Z,50.88
2023-03-27T14:46:39.681Z,49.85
2023-03-27T14:51:48.601Z,51.59
2023-03-27T14:57:14.418Z,50.77
2023-03-27T15:02:32.672Z,51.19
2023-03-27T15:07:37.968Z,51.29
2023-03-27T15:13:01.487Z,48.28
2023-03-27T15:18:10.954Z,51.17
2023-03-27T15:23:21.801Z,51.66
2023-03-27T15:28:38.136Z,52.52
2023-03-27T15:34:34.293Z,55.25
2023-03-27T15:39:38.589Z,52.15
2023-03-27T15:44:42.661Z,53.60
2023-03-27T15:49:44.826Z,53.62
2023-03-27T15:54:56.637Z,56.01
2023-03-27T16:00:08.577Z,54.62
2023-03-27T16:05:18.774Z,53.80
2023-03-27T16:10:33.990Z,56.54
2023-03-27T16:15:38.897Z,54.92
2023-03-27T16:20:41.133Z,55.00
2023-03-27T16:25:43.400Z,56.73
2023-03-27T16:30:45.986Z,55.83
2023-03-27T16:35:49.388Z,55.45
2023-03-27T16:40:51.729Z,55.87
2023-03-27T16:45:55.482Z,55.36
2023-03-27T16:50:58.070Z,55.71
2023-03-27T16:56:00.508Z,56.15
2023-03-27T17:01:05.165Z,56.68
2023-03-27T17:06:10.419Z,56.62
2023-03-27T17:11:13.727Z,57.23
2023-03-27T17:16:16.561Z,57.59
2023-03-27T17:21:18.734Z,57.15
2023-03-27T17:26:32.164Z,57.38
2023-03-27T17:31:35.385Z,57.74
2023-03-27T17:36:43.199Z,58.33
2023-03-27T17:41:50.970Z,59.05
2023-03-27T17:46:53.380Z,59.23
2023-03-27T17:51:55.527Z,59.57
2023-03-27T17:56:57.447Z,62.21
2023-03-27T18:01:59.794Z,59.33
2023-03-27T18:07:02.056Z,60.32
2023-03-27T18:12:07.333Z,60.37
2023-03-27T18:17:09.962Z,60.47
2023-03-27T18:22:13.321Z,61.56
2023-03-27T18:27:16.523Z,61.96
2023-03-27T18:32:18.620Z,62.93
2023-03-27T18:37:20.632Z,65.94
2023-03-27T18:42:22.748Z,63.26
2023-03-27T18:47:24.773Z,66.27
2023-03-27T18:52:27.360Z,63.41
2023-03-27T18:57:29.793Z,64.11
2023-03-27T19:02:32.394Z,64.37
2023-03-27T19:07:34.462Z,63.71
2023-03-27T19:12:37.071Z,64.03
2023-03-27T19:18:02.165Z,64.02
2023-03-27T19:23:22.689Z,65.46
2023-03-27T19:28:27.656Z,68.66
2023-03-27T19:33:29.805Z,69.00
2023-03-27T19:38:32.179Z,70.80
2023-03-27T19:44:05.611Z,67.84
2023-03-27T19:50:20.155Z,68.91
2023-03-27T20:02:14.106Z,69.17
2023-03-27T20:07:16.500Z,67.34
2023-03-27T20:12:19.882Z,66.95
2023-03-27T20:17:28.090Z,66.90
2023-03-27T20:22:31.376Z,66.56
2023-03-27T20:27:33.662Z,66.76
2023-03-27T20:32:36.163Z,66.66
2023-03-27T20:37:40.732Z,67.00
2023-03-27T20:42:48.038Z,67.73
2023-03-27T20:47:50.974Z,66.67
2023-03-27T20:52:53.246Z,66.30
2023-03-27T20:57:55.368Z,66.55
2023-03-27T21:02:57.412Z,66.64
2023-03-27T21:07:59.898Z,68.35
2023-03-27T21:13:02.205Z,66.26
2023-03-27T21:18:04.458Z,66.19
2023-03-27T21:23:06.554Z,66.11
2023-03-27T21:28:08.931Z,66.26
2023-03-27T21:33:11.211Z,67.81
2023-03-27T21:38:14.557Z,66.78
2023-03-27T21:43:16.589Z,66.27
2023-03-27T21:48:18.804Z,66.69
2023-03-27T21:53:20.779Z,68.24
2023-03-27T21:58:23.855Z,66.25
2023-03-27T22:03:27.921Z,66.78
2023-03-27T22:08:29.858Z,66.89
2023-03-27T22:13:31.884Z,66.77
2023-03-27T22:18:33.961Z,66.53
2023-03-27T22:23:36.035Z,68.72
2023-03-27T22:28:38.448Z,66.66
2023-03-27T22:33:40.830Z,67.11
2023-03-27T22:38:43.525Z,67.20
2023-03-27T22:43:48.745Z,67.42
2023-03-27T22:48:59.106Z,68.51
2023-03-27T22:54:01.127Z,67.72
2023-03-27T22:59:04.056Z,69.92
2023-03-27T23:04:06.470Z,67.93
2023-03-27T23:09:10.338Z,68.66
2023-03-27T23:14:13.108Z,68.53
2023-03-27T23:19:21.229Z,69.75
2023-03-27T23:24:23.178Z,69.42
2023-03-27T23:29:25.285Z,69.36
2023-03-27T23:34:28.444Z,69.10
2023-03-27T23:39:30.878Z,69.00
2023-03-27T23:44:32.936Z,68.79
2023-03-27T23:49:34.927Z,70.89
2023-03-27T23:54:38.003Z,68.92
2023-03-27T23:59:39.918Z,68.70
